createdAt,value
2023-03-07T00:01:58.705Z,5.61
2023-03-07T00:07:00.232Z,5.60
2023-03-07T00:12:01.615Z,5.61
2023-03-07T00:17:02.972Z,5.48
2023-03-07T00:22:04.459Z,5.55
2023-03-07T00:27:06.265Z,5.40
2023-03-07T00:32:07.720Z,5.32
2023-03-07T00:37:09.250Z,5.26
2023-03-07T00:42:10.578Z,5.20
2023-03-07T00:47:12.199Z,5.09
2023-03-07T00:52:13.524Z,5.04
2023-03-07T00:57:14.856Z,4.93
2023-03-07T01:02:16.331Z,4.83
2023-03-07T01:07:17.776Z,4.79
2023-03-07T01:12:19.115Z,4.81
2023-03-07T01:17:20.482Z,4.70
2023-03-07T01:22:21.798Z,4.64
2023-03-07T01:27:23.763Z,4.63
2023-03-07T01:32:25.286Z,4.56
2023-03-07T01:37:26.704Z,4.51
2023-03-07T01:42:31.449Z,4.51
2023-03-07T01:47:32.856Z,4.48
2023-03-07T01:52:41.658Z,4.49
2023-03-07T01:57:45.793Z,4.49
2023-03-07T02:02:53.598Z,4.48
2023-03-07T02:07:56.968Z,4.46
2023-03-07T02:12:58.363Z,4.61
2023-03-07T02:17:59.868Z,4.64
2023-03-07T02:23:01.968Z,4.62
2023-03-07T02:28:04.447Z,4.56
2023-03-07T02:33:05.805Z,4.61
2023-03-07T02:38:07.494Z,4.61
2023-03-07T02:43:09.620Z,4.65
2023-03-07T02:48:11.134Z,4.64
2023-03-07T02:53:12.454Z,4.67
2023-03-07T02:58:13.812Z,4.67
2023-03-07T03:03:15.230Z,4.72
2023-03-07T03:08:16.558Z,4.70
2023-03-07T03:13:17.900Z,4.75
2023-03-07T03:18:19.358Z,4.71
2023-03-07T03:23:21.071Z,4.76
2023-03-07T03:28:22.763Z,4.80
2023-03-07T03:33:24.095Z,4.84
2023-03-07T03:38:26.770Z,4.77
2023-03-07T03:43:28.122Z,4.77
2023-03-07T03:48:29.730Z,4.85
2023-03-07T03:53:33.331Z,4.84
2023-03-07T03:58:35.679Z,4.84
2023-03-07T04:03:43.316Z,4.83
2023-03-07T04:08:46.364Z,4.86
2023-03-07T04:13:47.776Z,4.84
2023-03-07T04:18:50.890Z,4.85
2023-03-07T04:23:55.494Z,4.80
2023-03-07T04:28:56.906Z,4.86
2023-03-07T04:33:58.602Z,4.94
2023-03-07T04:38:59.917Z,4.90
2023-03-07T04:44:01.380Z,4.96
2023-03-07T04:49:02.742Z,4.97
2023-03-07T04:54:04.169Z,5.01
2023-03-07T04:59:05.503Z,5.01
2023-03-07T05:04:06.863Z,5.06
2023-03-07T05:09:08.226Z,5.07
2023-03-07T05:14:09.571Z,5.10
2023-03-07T05:19:10.955Z,5.17
2023-03-07T05:24:12.296Z,5.15
2023-03-07T05:29:13.748Z,5.21
2023-03-07T05:34:15.945Z,5.25
2023-03-07T05:39:17.475Z,5.22
2023-03-07T05:44:19.620Z,5.23
2023-03-07T05:49:21.165Z,5.20
2023-03-07T05:54:22.597Z,5.15
2023-03-07T05:59:23.926Z,5.18
2023-03-07T06:04:25.339Z,5.28
2023-03-07T06:09:28.052Z,5.31
2023-03-07T06:14:31.194Z,5.33
2023-03-07T06:19:33.854Z,5.41
2023-03-07T06:24:35.204Z,5.51
2023-03-07T06:29:37.005Z,5.62
2023-03-07T06:34:38.372Z,5.58
2023-03-07T06:39:39.834Z,5.65
2023-03-07T06:44:43.760Z,5.67
2023-03-07T06:49:45.209Z,5.69
2023-03-07T06:54:46.733Z,5.65
2023-03-07T06:59:48.082Z,5.69
2023-03-07T07:04:49.505Z,5.76
2023-03-07T07:09:51.429Z,5.71
2023-03-07T07:14:52.818Z,5.76
2023-03-07T07:19:54.178Z,5.81
2023-03-07T07:24:55.571Z,5.80
2023-03-07T07:29:56.929Z,5.79
2023-03-07T07:34:58.326Z,5.88
2023-03-07T07:39:59.696Z,5.94
2023-03-07T07:45:01.351Z,5.98
2023-03-07T07:50:02.818Z,6.03
2023-03-07T07:55:04.477Z,6.06
2023-03-07T08:00:06.776Z,6.10
2023-03-07T08:05:12.594Z,6.16
2023-03-07T08:10:16.010Z,6.19
2023-03-07T08:15:19.378Z,6.28
2023-03-07T08:20:23.406Z,6.31
2023-03-07T08:25:25.584Z,6.45
2023-03-07T08:30:30.186Z,6.54
2023-03-07T08:35:32.266Z,6.58
2023-03-07T08:40:33.763Z,6.73
2023-03-07T08:45:35.130Z,6.81
2023-03-07T08:50:38.771Z,6.95
2023-03-07T08:55:40.110Z,7.18
2023-03-07T09:00:41.574Z,7.41
2023-03-07T09:05:42.960Z,7.56
2023-03-07T09:10:44.369Z,7.74
2023-03-07T09:15:45.924Z,7.86
2023-03-07T09:20:47.264Z,7.99
2023-03-07T09:25:48.627Z,8.08
2023-03-07T09:30:49.992Z,8.14
2023-03-07T09:35:51.460Z,8.47
2023-03-07T09:40:53.092Z,8.57
2023-03-07T09:46:13.105Z,8.63
2023-03-07T09:51:50.449Z,8.55
2023-03-07T09:56:55.498Z,8.84
2023-03-07T10:02:17.172Z,8.74
2023-03-07T10:07:23.227Z,8.80
2023-03-07T10:12:55.213Z,8.85
2023-03-07T10:18:12.116Z,8.97
2023-03-07T10:23:32.808Z,9.07
2023-03-07T10:28:37.096Z,9.25
2023-03-07T10:33:40.620Z,9.22
2023-03-07T10:39:06.426Z,9.23
2023-03-07T10:44:17.418Z,9.22
2023-03-07T10:49:25.087Z,9.31
2023-03-07T10:54:38.323Z,9.41
2023-03-07T10:59:45.195Z,9.39
2023-03-07T11:04:47.121Z,9.42
2023-03-07T11:09:49.260Z,9.63
2023-03-07T11:14:52.410Z,9.88
2023-03-07T11:19:57.976Z,10.12
2023-03-07T11:25:13.942Z,10.09
2023-03-07T11:30:21.936Z,10.00
2023-03-07T11:35:52.676Z,10.01
2023-03-07T11:41:07.969Z,10.05
2023-03-07T11:46:24.942Z,9.92
2023-03-07T11:51:53.468Z,9.86
2023-03-07T11:57:06.159Z,9.73
2023-03-07T12:02:46.659Z,9.73
2023-03-07T12:08:13.047Z,9.75
2023-03-07T12:13:43.447Z,9.68
2023-03-07T12:18:55.751Z,9.82
2023-03-07T12:24:03.201Z,9.84
2023-03-07T12:29:20.627Z,9.81
2023-03-07T12:34:46.008Z,9.93
2023-03-07T12:40:10.934Z,10.06
2023-03-07T12:45:26.064Z,9.99
2023-03-07T12:50:41.258Z,9.93
2023-03-07T12:55:50.449Z,10.01
2023-03-07T13:00:59.748Z,9.94
2023-03-07T13:06:01.511Z,10.08
2023-03-07T13:11:03.364Z,10.18
2023-03-07T13:16:05.643Z,10.35
2023-03-07T13:21:08.533Z,10.35
2023-03-07T13:26:11.827Z,10.28
2023-03-07T13:31:29.309Z,10.23
2023-03-07T13:36:38.654Z,10.36
2023-03-07T13:41:46.601Z,10.37
2023-03-07T13:46:48.830Z,10.26
2023-03-07T13:52:35.337Z,10.10
2023-03-07T13:57:39.022Z,10.22
2023-03-07T14:02:43.596Z,10.11
2023-03-07T14:07:51.355Z,10.17
2023-03-07T14:13:11.174Z,10.06
2023-03-07T14:18:35.072Z,10.11
2023-03-07T14:24:09.932Z,10.08
2023-03-07T14:29:26.038Z,10.04
2023-03-07T14:34:33.645Z,9.79
2023-03-07T14:39:53.525Z,9.83
2023-03-07T14:45:16.160Z,9.83
2023-03-07T14:50:23.315Z,9.71
2023-03-07T14:55:35.860Z,9.63
2023-03-07T15:00:37.258Z,9.65
2023-03-07T15:05:48.205Z,9.53
2023-03-07T15:10:57.667Z,9.43
2023-03-07T15:16:03.680Z,9.50
2023-03-07T15:21:07.445Z,9.55
2023-03-07T15:26:20.965Z,9.50
2023-03-07T15:31:23.065Z,9.42
2023-03-07T15:36:27.004Z,9.37
2023-03-07T15:41:37.153Z,9.45
2023-03-07T15:46:48.623Z,9.36
2023-03-07T15:51:54.275Z,9.35
2023-03-07T15:56:59.369Z,9.43
2023-03-07T16:02:34.896Z,9.28
2023-03-07T16:07:36.322Z,9.25
2023-03-07T16:12:45.982Z,9.24
2023-03-07T16:17:54.932Z,9.34
2023-03-07T16:22:56.483Z,9.27
2023-03-07T16:27:59.155Z,9.21
2023-03-07T16:33:00.520Z,9.24
2023-03-07T16:38:01.859Z,9.24
2023-03-07T16:43:03.326Z,9.12
2023-03-07T16:48:04.860Z,9.10
2023-03-07T16:53:06.331Z,9.06
2023-03-07T16:58:19.680Z,9.08
2023-03-07T17:03:21.675Z,9.08
2023-03-07T17:08:23.076Z,9.11
2023-03-07T17:13:24.476Z,9.10
2023-03-07T17:18:26.636Z,9.02
2023-03-07T17:23:28.057Z,9.11
2023-03-07T17:28:29.573Z,9.08
2023-03-07T17:33:31.000Z,9.04
2023-03-07T17:38:32.438Z,8.96
2023-03-07T17:43:34.029Z,8.85
2023-03-07T17:48:35.698Z,8.82
2023-03-07T17:53:38.329Z,8.74
2023-03-07T17:58:39.715Z,8.73
2023-03-07T18:03:48.751Z,8.75
2023-03-07T18:08:50.673Z,8.67
2023-03-07T18:13:52.082Z,8.59
2023-03-07T18:18:59.448Z,8.56
2023-03-07T18:24:03.067Z,8.53
2023-03-07T18:29:04.561Z,8.54
2023-03-07T18:34:06.116Z,8.62
2023-03-07T18:39:11.086Z,8.52
2023-03-07T18:44:12.484Z,8.54
2023-03-07T18:49:16.157Z,8.55
2023-03-07T18:54:17.895Z,8.56
2023-03-07T18:59:19.486Z,8.64
2023-03-07T19:04:20.867Z,8.63
2023-03-07T19:09:23.721Z,8.58
2023-03-07T19:14:26.438Z,8.46
2023-03-07T19:19:27.950Z,8.05
2023-03-07T19:24:29.444Z,7.97
2023-03-07T19:29:31.032Z,7.96
2023-03-07T19:34:32.439Z,7.94
2023-03-07T19:39:34.239Z,7.85
2023-03-07T19:44:35.808Z,7.84
2023-03-07T19:49:37.718Z,7.82
2023-03-07T19:54:40.650Z,7.74
2023-03-07T19:59:42.105Z,7.47
2023-03-07T20:04:43.545Z,7.18
2023-03-07T20:09:45.011Z,6.93
2023-03-07T20:14:46.632Z,6.81
2023-03-07T20:19:50.520Z,6.67
2023-03-07T20:24:52.358Z,6.54
2023-03-07T20:29:53.965Z,6.58
2023-03-07T20:34:57.637Z,6.59
2023-03-07T20:40:02.617Z,6.52
2023-03-07T20:45:05.659Z,6.41
2023-03-07T20:50:07.551Z,6.37
2023-03-07T20:55:09.210Z,6.35
2023-03-07T21:00:11.414Z,6.32
2023-03-07T21:05:12.837Z,6.37
2023-03-07T21:10:14.567Z,6.52
2023-03-07T21:15:16.058Z,6.15
2023-03-07T21:20:17.544Z,6.09
2023-03-07T21:25:18.951Z,5.73
2023-03-07T21:30:20.453Z,5.53
2023-03-07T21:35:21.848Z,5.58
2023-03-07T21:40:23.265Z,5.49
2023-03-07T21:45:25.749Z,5.59
2023-03-07T21:50:27.683Z,5.64
2023-03-07T21:55:29.089Z,5.74
2023-03-07T22:00:30.862Z,5.78
2023-03-07T22:05:32.278Z,5.90
2023-03-07T22:10:33.769Z,6.00
2023-03-07T22:15:35.211Z,6.07
2023-03-07T22:20:38.244Z,6.06
2023-03-07T22:25:39.691Z,6.07
2023-03-07T22:30:41.161Z,6.01
2023-03-07T22:35:42.660Z,5.91
2023-03-07T22:40:44.011Z,5.85
2023-03-07T22:45:50.643Z,5.88
2023-03-07T22:50:52.223Z,5.86
2023-03-07T22:55:53.723Z,5.75
2023-03-07T23:00:55.122Z,5.79
2023-03-07T23:05:59.635Z,5.88
2023-03-07T23:11:03.619Z,5.92
2023-03-07T23:16:16.479Z,5.93
2023-03-07T23:21:23.672Z,5.99
2023-03-07T23:26:28.031Z,5.99
2023-03-07T23:31:32.458Z,5.92
2023-03-07T23:36:34.519Z,5.67
2023-03-07T23:41:36.264Z,5.48
2023-03-07T23:46:37.968Z,5.48
2023-03-07T23:51:39.465Z,5.50
2023-03-07T23:56:40.826Z,5.45
